Flight Track Log - Related Links

Times and Time Zones

All times are in EDT time to prevent confusion due to time zone crossing. See the SWA2857 flight status page for this flight to view local times or setup timezone preferences in your user account.

Time Position Orientation Groundspeed Altitude Reporting Facility
EDT Latitude Longitude Course Direction KTS MPH feet Rate Location/Type
Fri 08:06:35 PM 42.3667 -70.9833 75° East 148 170 1,100  Level KA90
Fri 08:07:53 PM 42.3833 -70.9000 75° East 186 214 4,600 2,818 Climbing KA90
Fri 08:08:47 PM 42.3833 -70.8167 90° East 246 283 7,300 3,244 Climbing KA90
Fri 08:10:08 PM 42.4653 -70.7683 24° Northeast 294 338 11,900 3,600 Climbing Boston Center
Fri 08:11:32 PM 42.5542 -70.8703 320° Northwest 261 300 17,200 3,667 Climbing Boston Center
Fri 08:12:32 PM 42.6225 -70.9897 308° West 330 380 20,700 3,450 Climbing Boston Center
Fri 08:13:32 PM 42.6864 -71.1014 308° West 359 413 24,100 3,150 Climbing Boston Center
Fri 08:14:32 PM 42.7522 -71.2186 307° West 380 437 27,000 2,550 Climbing Boston Center
Fri 08:15:32 PM 42.7956 -71.3622 292° West 393 452 29,200 2,200 Climbing Boston Center
Fri 08:16:32 PM 42.8114 -71.5286 277° West 417 480 31,400 2,500 Climbing Boston Center
Fri 08:17:32 PM 42.8231 -71.6928 276° West 435 501 34,200 2,250 Climbing Boston Center
Fri 08:18:32 PM 42.8342 -71.8228 277° West 435 501 35,900 1,900 Climbing Boston Center
Fri 08:19:32 PM 42.8519 -72.0153 277° West 440 506 38,000 1,850 Climbing Boston Center
Fri 08:20:32 PM 42.8669 -72.1767 277° West 440 506 39,600 1,000 Climbing Boston Center
Fri 08:21:32 PM 42.8881 -72.3467 280° West 445 512 40,000 200 Climbing Boston Center
Fri 08:22:32 PM 42.9028 -72.5053 277° West 445 512 40,000  Level Boston Center
Fri 08:23:32 PM 42.9108 -72.6781 274° West 439 505 40,000  Level Boston Center
Fri 08:24:32 PM 42.9228 -72.8428 276° West 439 505 40,000  Level Boston Center
Fri 08:25:32 PM 42.9347 -72.9733 277° West 439 505 40,000  Level Boston Center
Fri 08:26:32 PM 42.9525 -73.1550 278° West 445 512 40,000  Level Boston Center
Fri 08:27:32 PM 42.9681 -73.3139 278° West 440 506 40,000  Level Boston Center
Fri 08:28:32 PM 42.9750 -73.4928 273° West 434 499 40,000  Level Boston Center
Fri 08:29:32 PM 42.9900 -73.6522 277° West 434 499 40,000  Level Boston Center
Fri 08:30:32 PM 43.0047 -73.8169 277° West 434 499 40,000  Level Boston Center
Fri 08:31:32 PM 43.0131 -73.9819 274° West 434 499 40,000  Level Boston Center
Fri 08:32:32 PM 43.0275 -74.1469 277° West 439 505 40,000  Level Boston Center
Fri 08:33:32 PM 43.0394 -74.3092 276° West 439 505 40,000  Level Boston Center
Fri 08:34:32 PM 43.0511 -74.4744 276° West 445 512 40,000  Level Boston Center
Fri 08:35:56 PM 43.0642 -74.6681 275° West 445 512 40,000  Level Boston Center
Fri 08:36:56 PM 43.0750 -74.8619 274° West 440 506 40,000  Level Boston Center
Fri 08:37:56 PM 43.0586 -75.0317 263° West 440 506 40,000  Level Boston Center
Fri 08:38:56 PM 43.0428 -75.1761 262° West 440 506 40,000  Level Boston Center
Fri 08:39:56 PM 43.0242 -75.3372 261° West 440 506 40,000  Level Boston Center
Fri 08:40:56 PM 43.0033 -75.5036 260° West 446 513 40,000  Level Boston Center
Fri 08:41:56 PM 42.9864 -75.6617 262° West 446 513 40,000  Level Boston Center
Fri 08:42:56 PM 42.9669 -75.8256 261° West 441 507 40,000  Level Boston Center
Fri 08:44:36 PM 42.9303 -76.1108 260° West 448 516 40,000  Level Cleveland Center
Fri 08:45:36 PM 42.9092 -76.2742 260° West 448 516 40,000  Level Cleveland Center
Fri 08:46:36 PM 42.8881 -76.4372 260° West 448 516 40,000  Level Cleveland Center
Fri 08:47:36 PM 42.8686 -76.5942 260° West 438 504 40,000  Level Cleveland Center
Fri 08:48:36 PM 42.8469 -76.7542 260° West 432 497 40,000  Level Cleveland Center
Fri 08:49:36 PM 42.8272 -76.9142 261° West 432 497 40,000  Level Cleveland Center
Fri 08:50:36 PM 42.8069 -77.0708 260° West 432 497 40,000  Level Cleveland Center
Fri 08:51:36 PM 42.7867 -77.2278 260° West 432 497 40,000  Level Cleveland Center
Fri 08:52:36 PM 42.7661 -77.3817 260° West 432 497 40,000  Level Cleveland Center
Fri 08:53:36 PM 42.7433 -77.5439 259° West 432 497 40,000  Level Cleveland Center
Fri 08:54:36 PM 42.7225 -77.7033 260° West 432 497 40,000  Level Cleveland Center
Fri 08:55:36 PM 42.7011 -77.8625 260° West 426 490 40,000  Level Cleveland Center
Fri 08:56:36 PM 42.6778 -78.0217 259° West 431 496 40,000  Level Cleveland Center
Fri 08:57:36 PM 42.6542 -78.1778 258° West 431 496 40,000  Level Cleveland Center
Fri 08:58:36 PM 42.6322 -78.3367 259° West 431 496 40,000  Level Cleveland Center
Fri 08:59:36 PM 42.6103 -78.4956 259° West 431 496 40,000  Level Cleveland Center
Fri 09:00:36 PM 42.5858 -78.6542 258° West 431 496 40,000  Level Cleveland Center
Fri 09:01:36 PM 42.5614 -78.8158 258° West 431 496 40,000  Level Cleveland Center
Fri 09:02:36 PM 42.5386 -78.9742 259° West 431 496 40,000  Level Cleveland Center
Fri 09:03:36 PM 42.5136 -79.1381 258° West 431 496 40,000  Level Cleveland Center
Fri 09:04:36 PM 42.4928 -79.2992 260° West 436 502 40,000  Level Cleveland Center
Fri 09:05:36 PM 42.5028 -79.4622 275° West 427 491 40,000  Level Cleveland Center
Fri 09:06:36 PM 42.5103 -79.6200 274° West 427 491 40,000  Level Cleveland Center
Fri 09:07:36 PM 42.5178 -79.7831 274° West 427 491 40,000  Level Cleveland Center
Fri 09:08:36 PM 42.5253 -79.9436 274° West 432 497 40,000  Level Cleveland Center
Fri 09:09:36 PM 42.5300 -80.0903 273° West 432 497 40,000  Level Cleveland Center
Fri 09:10:36 PM 42.5347 -80.2564 272° West 437 503 40,000  Level Cleveland Center
Fri 09:11:36 PM 42.5414 -80.4142 273° West 445 512 40,000  Level Cleveland Center
Fri 09:12:36 PM 42.5497 -80.5831 274° West 439 505 40,000  Level Cleveland Center
Fri 09:13:36 PM 42.5558 -80.7381 273° West 433 498 40,000  Level Cleveland Center
Fri 09:14:36 PM 42.5639 -80.9017 274° West 433 498 40,000  Level Cleveland Center
Fri 09:15:36 PM 42.5675 -81.0569 272° West 428 493 40,000  Level Cleveland Center
Fri 09:16:36 PM 42.5731 -81.2203 273° West 428 493 40,000  Level Cleveland Center
Fri 09:17:36 PM 42.5783 -81.3953 272° West 428 493 40,000  Level Cleveland Center
Fri 09:18:36 PM 42.6000 -81.5506 281° West 423 487 40,000  Level Cleveland Center
Fri 09:19:36 PM 42.6278 -81.7092 283° West 428 493 40,000  Level Cleveland Center
Fri 09:20:36 PM 42.6572 -81.8678 284° West 433 498 40,000  Level Cleveland Center
Fri 09:21:36 PM 42.6825 -82.0264 282° West 433 498 40,000  Level Cleveland Center
Fri 09:22:36 PM 42.7094 -82.1853 283° West 433 498 40,000  Level Cleveland Center
Fri 09:23:36 PM 42.7364 -82.3414 283° West 433 498 40,000  Level Cleveland Center
Fri 09:24:36 PM 42.7631 -82.4978 283° West 433 498 40,000  Level Cleveland Center
Fri 09:25:36 PM 42.7897 -82.6542 283° West 433 498 40,000  Level Cleveland Center
Fri 09:26:36 PM 42.8158 -82.8106 283° West 433 498 40,000  Level Cleveland Center
Fri 09:27:36 PM 42.8419 -82.9703 283° West 433 498 40,000  Level Cleveland Center
Fri 09:28:36 PM 42.8678 -83.1269 283° West 433 498 40,000  Level Cleveland Center
Fri 09:29:36 PM 42.8933 -83.2867 282° West 433 498 40,000  Level Cleveland Center
Fri 09:30:36 PM 42.9186 -83.4467 282° West 433 498 40,000  Level Cleveland Center
Fri 09:31:36 PM 42.9439 -83.6039 282° West 433 498 40,000  Level Cleveland Center
Fri 09:32:36 PM 42.9686 -83.7639 282° West 433 498 40,000  Level Cleveland Center
Fri 09:33:36 PM 42.9828 -83.9264 277° West 433 498 40,000  Level Cleveland Center
Fri 09:34:36 PM 42.9969 -84.0864 277° West 427 491 40,000  Level Cleveland Center
Fri 09:35:36 PM 43.0147 -84.2492 279° West 427 491 40,000  Level Cleveland Center
Fri 09:37:06 PM 43.0369 -84.4786 278° West 432 497 40,000  Level Chicago Center
Fri 09:38:08 PM 43.0508 -84.6400 277° West 432 497 40,000  Level Chicago Center
Fri 09:39:10 PM 43.0653 -84.8011 277° West 427 491 40,000  Level Chicago Center
Fri 09:40:11 PM 43.0808 -84.9622 278° West 428 493 40,000  Level Chicago Center
Fri 09:41:13 PM 43.0900 -85.1572 274° West 431 496 40,000 -242 Level Chicago Center
Fri 09:42:15 PM 43.0958 -85.3206 273° West 431 496 39,500 -1,317 Descending Chicago Center
Fri 09:43:16 PM 43.1025 -85.4803 273° West 424 488 37,300 -1,512 Descending Chicago Center
Fri 09:44:18 PM 43.1086 -85.6458 273° West 436 502 36,400 -871 Descending Chicago Center
Fri 09:45:20 PM 43.1158 -85.8119 273° West 441 507 35,500 -1,258 Descending Chicago Center
Fri 09:46:22 PM 43.1211 -85.9806 273° West 455 524 33,800 -2,927 Descending Chicago Center
Fri 09:47:23 PM 43.1283 -86.1864 273° West 465 535 29,500 -3,854 Descending Chicago Center
Fri 09:48:25 PM 43.1328 -86.3572 272° West 453 521 25,900 -3,532 Descending Chicago Center
Fri 09:49:27 PM 43.1386 -86.5311 273° West 457 526 22,200 -3,171 Descending Chicago Center
Fri 09:50:28 PM 43.1436 -86.6994 272° West 448 516 19,400 -2,659 Descending Chicago Center
Fri 09:52:32 PM 43.1519 -87.0308 272° West 389 448 14,000 -2,238 Descending Chicago Center
Fri 09:53:33 PM 43.1472 -87.1631 267° West 352 405 12,500 -1,756 Descending Chicago Center
Fri 09:54:35 PM 43.1219 -87.2811 254° West 328 377 10,400 -1,220 Descending Chicago Center
Fri 09:55:36 PM 43.0936 -87.3919 251° West 315 362 10,000 -195 Descending Chicago Center
Fri 09:56:38 PM 43.0672 -87.5003 252° West 300 345 10,000 -919 Level Chicago Center
Fri 09:57:40 PM 43.0364 -87.6242 251° West 295 339 8,100 -1,756 Descending Chicago Center
Fri 09:58:41 PM 43.0125 -87.7297 253° West 289 333 6,400 -1,610 Descending Chicago Center
Fri 09:59:43 PM 42.9642 -87.7978 226° Southwest 275 316 4,800 -823 Descending Chicago Center
Fri 10:00:45 PM 42.9061 -87.8006 182° South 223 257 4,700 -780 Descending Chicago Center
Fri 10:01:46 PM 42.8758 -87.8253 211° Southwest 156 180 3,200 -1,366 Descending Chicago Center
Fri 10:02:48 PM 42.8717 -87.8850 265° West 158 182 1,900 -878 Descending Chicago Center
Fri 10:03:49 PM 42.9097 -87.9036 340° North 142 163 1,400 -492 Descending Chicago Center
Fri 10:05:00 PM 42.9333 -87.8833 324° Northwest  Level FlightAware Approximate
Fri 10:12:00 PM 42.9469 -87.8971 324° Northwest  Level Estimated

Login

Don't have an account? Register now (free) for customized features, flight alerts, and more!